sensor_id;sensor_type;location;lat;lon;timestamp;temperature;humidity
40374;DHT22;26079;45.958;12.492;2024-02-14T00:00:06;4.60;99.90
40374;DHT22;26079;45.958;12.492;2024-02-14T00:02:35;4.60;99.90
40374;DHT22;26079;45.958;12.492;2024-02-14T00:05:02;4.60;99.90
40374;DHT22;26079;45.958;12.492;2024-02-14T00:07:28;4.50;99.90
40374;DHT22;26079;45.958;12.492;2024-02-14T00:09:54;4.60;99.90
40374;DHT22;26079;45.958;12.492;2024-02-14T00:12:20;4.50;99.90
40374;DHT22;26079;45.958;12.492;2024-02-14T00:14:52;4.50;99.90
40374;DHT22;26079;45.958;12.492;2024-02-14T00:17:17;4.40;99.90
40374;DHT22;26079;45.958;12.492;2024-02-14T00:19:48;4.40;99.90
40374;DHT22;26079;45.958;12.492;2024-02-14T00:22:14;4.40;99.90
40374;DHT22;26079;45.958;12.492;2024-02-14T00:24:40;4.40;99.90
40374;DHT22;26079;45.958;12.492;2024-02-14T00:27:05;4.40;99.90
40374;DHT22;26079;45.958;12.492;2024-02-14T00:29:31;4.30;99.90
40374;DHT22;26079;45.958;12.492;2024-02-14T00:32:00;4.30;99.90
40374;DHT22;26079;45.958;12.492;2024-02-14T00:34:25;4.20;99.90
40374;DHT22;26079;45.958;12.492;2024-02-14T00:36:51;4.10;99.90
40374;DHT22;26079;45.958;12.492;2024-02-14T00:39:17;4.10;99.90
40374;DHT22;26079;45.958;12.492;2024-02-14T00:41:42;4.10;99.90
40374;DHT22;26079;45.958;12.492;2024-02-14T00:44:08;4.10;99.90
40374;DHT22;26079;45.958;12.492;2024-02-14T00:46:34;4.10;99.90
40374;DHT22;26079;45.958;12.492;2024-02-14T00:49:00;4.00;99.90
40374;DHT22;26079;45.958;12.492;2024-02-14T00:51:25;4.00;99.90
40374;DHT22;26079;45.958;12.492;2024-02-14T00:53:52;4.00;99.90
40374;DHT22;26079;45.958;12.492;2024-02-14T00:56:17;4.00;99.90
40374;DHT22;26079;45.958;12.492;2024-02-14T00:58:43;3.90;99.90
40374;DHT22;26079;45.958;12.492;2024-02-14T01:01:09;3.90;99.90
40374;DHT22;26079;45.958;12.492;2024-02-14T01:03:35;3.90;99.90
40374;DHT22;26079;45.958;12.492;2024-02-14T01:06:00;3.90;99.90
40374;DHT22;26079;45.958;12.492;2024-02-14T01:08:26;3.80;99.90
40374;DHT22;26079;45.958;12.492;2024-02-14T01:10:52;3.80;99.90
40374;DHT22;26079;45.958;12.492;2024-02-14T01:13:18;3.80;99.90
40374;DHT22;26079;45.958;12.492;2024-02-14T01:15:44;3.80;99.90
40374;DHT22;26079;45.958;12.492;2024-02-14T01:18:09;3.80;99.90
40374;DHT22;26079;45.958;12.492;2024-02-14T01:20:35;3.70;99.90
40374;DHT22;26079;45.958;12.492;2024-02-14T01:23:02;3.60;99.90
40374;DHT22;26079;45.958;12.492;2024-02-14T01:25:28;3.60;99.90
40374;DHT22;26079;45.958;12.492;2024-02-14T01:27:54;3.60;99.90
40374;DHT22;26079;45.958;12.492;2024-02-14T01:30:20;3.60;99.90
40374;DHT22;26079;45.958;12.492;2024-02-14T01:32:46;3.60;99.90
40374;DHT22;26079;45.958;12.492;2024-02-14T01:35:12;3.50;99.90
40374;DHT22;26079;45.958;12.492;2024-02-14T01:37:38;3.50;99.90
40374;DHT22;26079;45.958;12.492;2024-02-14T01:40:05;3.40;99.90
40374;DHT22;26079;45.958;12.492;2024-02-14T01:42:32;3.40;99.90
40374;DHT22;26079;45.958;12.492;2024-02-14T01:44:58;3.40;99.90
40374;DHT22;26079;45.958;12.492;2024-02-14T01:47:24;3.40;99.90
40374;DHT22;26079;45.958;12.492;2024-02-14T01:49:50;3.40;99.90
40374;DHT22;26079;45.958;12.492;2024-02-14T01:52:15;3.40;99.90
40374;DHT22;26079;45.958;12.492;2024-02-14T01:54:41;3.30;99.90
40374;DHT22;26079;45.958;12.492;2024-02-14T01:57:08;3.30;99.90
40374;DHT22;26079;45.958;12.492;2024-02-14T01:59:36;3.20;99.90
40374;DHT22;26079;45.958;12.492;2024-02-14T02:02:01;3.20;99.90
40374;DHT22;26079;45.958;12.492;2024-02-14T02:04:27;3.20;99.90
40374;DHT22;26079;45.958;12.492;2024-02-14T02:06:53;3.20;99.90
40374;DHT22;26079;45.958;12.492;2024-02-14T02:09:22;3.10;99.90
40374;DHT22;26079;45.958;12.492;2024-02-14T02:11:49;3.10;99.90
40374;DHT22;26079;45.958;12.492;2024-02-14T02:14:16;3.10;99.90
40374;DHT22;26079;45.958;12.492;2024-02-14T02:16:42;3.10;99.90
40374;DHT22;26079;45.958;12.492;2024-02-14T02:19:09;3.00;99.90
40374;DHT22;26079;45.958;12.492;2024-02-14T02:21:35;3.00;99.90
40374;DHT22;26079;45.958;12.492;2024-02-14T02:24:01;3.00;99.90
40374;DHT22;26079;45.958;12.492;2024-02-14T02:26:27;3.00;99.90
40374;DHT22;26079;45.958;12.492;2024-02-14T02:28:53;3.00;99.90
40374;DHT22;26079;45.958;12.492;2024-02-14T02:31:19;3.00;99.90
40374;DHT22;26079;45.958;12.492;2024-02-14T02:33:46;3.10;99.90
40374;DHT22;26079;45.958;12.492;2024-02-14T02:36:11;3.10;99.90
40374;DHT22;26079;45.958;12.492;2024-02-14T02:38:37;3.00;99.90
40374;DHT22;26079;45.958;12.492;2024-02-14T02:41:04;3.10;99.90
40374;DHT22;26079;45.958;12.492;2024-02-14T02:43:32;3.00;99.90
40374;DHT22;26079;45.958;12.492;2024-02-14T02:45:58;2.90;99.90
40374;DHT22;26079;45.958;12.492;2024-02-14T02:48:24;2.90;99.90
40374;DHT22;26079;45.958;12.492;2024-02-14T02:50:50;2.90;99.90
40374;DHT22;26079;45.958;12.492;2024-02-14T02:53:16;2.90;99.90
40374;DHT22;26079;45.958;12.492;2024-02-14T02:55:42;2.90;99.90
40374;DHT22;26079;45.958;12.492;2024-02-14T02:58:09;3.00;99.90
40374;DHT22;26079;45.958;12.492;2024-02-14T03:00:34;3.00;99.90
40374;DHT22;26079;45.958;12.492;2024-02-14T03:03:00;3.10;99.90
40374;DHT22;26079;45.958;12.492;2024-02-14T03:05:28;3.10;99.90
40374;DHT22;26079;45.958;12.492;2024-02-14T03:07:54;3.10;99.90
40374;DHT22;26079;45.958;12.492;2024-02-14T03:10:22;3.10;99.90
40374;DHT22;26079;45.958;12.492;2024-02-14T03:12:48;3.10;99.90
40374;DHT22;26079;45.958;12.492;2024-02-14T03:15:15;3.10;99.90
40374;DHT22;26079;45.958;12.492;2024-02-14T03:17:41;3.00;99.90
40374;DHT22;26079;45.958;12.492;2024-02-14T03:20:08;3.00;99.90
40374;DHT22;26079;45.958;12.492;2024-02-14T03:22:45;3.00;99.90
40374;DHT22;26079;45.958;12.492;2024-02-14T03:25:17;2.90;99.90
40374;DHT22;26079;45.958;12.492;2024-02-14T03:27:43;2.90;99.90
40374;DHT22;26079;45.958;12.492;2024-02-14T03:30:13;2.90;99.90
40374;DHT22;26079;45.958;12.492;2024-02-14T03:32:44;2.80;99.90
40374;DHT22;26079;45.958;12.492;2024-02-14T03:35:11;2.80;99.90
40374;DHT22;26079;45.958;12.492;2024-02-14T03:37:40;2.70;99.90
40374;DHT22;26079;45.958;12.492;2024-02-14T03:40:08;2.70;99.90
40374;DHT22;26079;45.958;12.492;2024-02-14T03:42:34;2.70;99.90
40374;DHT22;26079;45.958;12.492;2024-02-14T03:45:00;2.70;99.90
40374;DHT22;26079;45.958;12.492;2024-02-14T03:47:34;2.70;99.90
40374;DHT22;26079;45.958;12.492;2024-02-14T03:49:59;2.70;99.90
40374;DHT22;26079;45.958;12.492;2024-02-14T03:52:25;2.60;99.90
40374;DHT22;26079;45.958;12.492;2024-02-14T03:54:52;2.60;99.90
40374;DHT22;26079;45.958;12.492;2024-02-14T03:57:17;2.60;99.90
40374;DHT22;26079;45.958;12.492;2024-02-14T03:59:44;2.60;99.90
40374;DHT22;26079;45.958;12.492;2024-02-14T04:02:10;2.60;99.90
40374;DHT22;26079;45.958;12.492;2024-02-14T04:04:41;2.60;99.90
40374;DHT22;26079;45.958;12.492;2024-02-14T04:07:08;2.60;99.90
40374;DHT22;26079;45.958;12.492;2024-02-14T04:09:34;2.60;99.90
40374;DHT22;26079;45.958;12.492;2024-02-14T04:12:00;2.60;99.90
40374;DHT22;26079;45.958;12.492;2024-02-14T04:14:25;2.60;99.90
40374;DHT22;26079;45.958;12.492;2024-02-14T04:16:51;2.60;99.90
40374;DHT22;26079;45.958;12.492;2024-02-14T04:19:17;2.60;99.90
40374;DHT22;26079;45.958;12.492;2024-02-14T04:21:43;2.60;99.90
40374;DHT22;26079;45.958;12.492;2024-02-14T04:24:09;2.60;99.90
40374;DHT22;26079;45.958;12.492;2024-02-14T04:26:35;2.60;99.90
40374;DHT22;26079;45.958;12.492;2024-02-14T04:29:02;2.60;99.90
40374;DHT22;26079;45.958;12.492;2024-02-14T04:31:27;2.60;99.90
40374;DHT22;26079;45.958;12.492;2024-02-14T04:33:55;2.60;99.90
40374;DHT22;26079;45.958;12.492;2024-02-14T04:36:21;2.60;99.90
40374;DHT22;26079;45.958;12.492;2024-02-14T04:38:50;2.50;99.90
40374;DHT22;26079;45.958;12.492;2024-02-14T04:41:17;2.50;99.90
40374;DHT22;26079;45.958;12.492;2024-02-14T04:43:43;2.50;99.90
40374;DHT22;26079;45.958;12.492;2024-02-14T04:46:09;2.50;99.90
40374;DHT22;26079;45.958;12.492;2024-02-14T04:48:35;2.50;99.90
40374;DHT22;26079;45.958;12.492;2024-02-14T04:51:01;2.50;99.90
40374;DHT22;26079;45.958;12.492;2024-02-14T04:53:27;2.50;99.90
40374;DHT22;26079;45.958;12.492;2024-02-14T04:55:53;2.50;99.90
40374;DHT22;26079;45.958;12.492;2024-02-14T04:58:19;2.50;99.90
40374;DHT22;26079;45.958;12.492;2024-02-14T05:00:45;2.50;99.90
40374;DHT22;26079;45.958;12.492;2024-02-14T05:03:11;2.50;99.90
40374;DHT22;26079;45.958;12.492;2024-02-14T05:05:37;2.30;99.90
40374;DHT22;26079;45.958;12.492;2024-02-14T05:08:03;2.30;99.90
40374;DHT22;26079;45.958;12.492;2024-02-14T05:10:29;2.20;99.90
40374;DHT22;26079;45.958;12.492;2024-02-14T05:12:55;2.20;99.90
40374;DHT22;26079;45.958;12.492;2024-02-14T05:15:20;2.30;99.90
40374;DHT22;26079;45.958;12.492;2024-02-14T05:17:46;2.40;99.90
40374;DHT22;26079;45.958;12.492;2024-02-14T05:20:12;2.40;99.90
40374;DHT22;26079;45.958;12.492;2024-02-14T05:22:38;2.20;99.90
40374;DHT22;26079;45.958;12.492;2024-02-14T05:25:07;2.10;99.90
40374;DHT22;26079;45.958;12.492;2024-02-14T05:27:35;2.10;99.90
40374;DHT22;26079;45.958;12.492;2024-02-14T05:30:01;2.10;99.90
40374;DHT22;26079;45.958;12.492;2024-02-14T05:32:27;2.10;99.90
40374;DHT22;26079;45.958;12.492;2024-02-14T05:34:52;2.00;99.90
40374;DHT22;26079;45.958;12.492;2024-02-14T05:37:18;2.00;99.90
40374;DHT22;26079;45.958;12.492;2024-02-14T05:39:43;2.00;99.90
40374;DHT22;26079;45.958;12.492;2024-02-14T05:42:09;2.00;99.90
40374;DHT22;26079;45.958;12.492;2024-02-14T05:44:35;2.00;99.90
40374;DHT22;26079;45.958;12.492;2024-02-14T05:47:01;2.00;99.90
40374;DHT22;26079;45.958;12.492;2024-02-14T05:49:26;2.00;99.90
40374;DHT22;26079;45.958;12.492;2024-02-14T05:51:52;1.90;99.90
40374;DHT22;26079;45.958;12.492;2024-02-14T05:54:19;2.00;99.90
40374;DHT22;26079;45.958;12.492;2024-02-14T05:56:48;2.00;99.90
40374;DHT22;26079;45.958;12.492;2024-02-14T05:59:13;2.10;99.90
40374;DHT22;26079;45.958;12.492;2024-02-14T06:01:39;2.20;99.90
40374;DHT22;26079;45.958;12.492;2024-02-14T06:04:05;2.20;99.90
40374;DHT22;26079;45.958;12.492;2024-02-14T06:06:30;2.20;99.90
40374;DHT22;26079;45.958;12.492;2024-02-14T06:08:56;2.30;99.90
40374;DHT22;26079;45.958;12.492;2024-02-14T06:11:23;2.20;99.90
40374;DHT22;26079;45.958;12.492;2024-02-14T06:13:48;2.20;99.90
40374;DHT22;26079;45.958;12.492;2024-02-14T06:16:14;2.20;99.90
40374;DHT22;26079;45.958;12.492;2024-02-14T06:18:40;2.20;99.90
40374;DHT22;26079;45.958;12.492;2024-02-14T06:21:06;2.30;99.90
40374;DHT22;26079;45.958;12.492;2024-02-14T06:23:32;2.20;99.90
40374;DHT22;26079;45.958;12.492;2024-02-14T06:25:58;2.20;99.90
40374;DHT22;26079;45.958;12.492;2024-02-14T06:28:24;2.20;99.90
40374;DHT22;26079;45.958;12.492;2024-02-14T06:30:49;2.20;99.90
40374;DHT22;26079;45.958;12.492;2024-02-14T06:33:15;2.20;99.90
40374;DHT22;26079;45.958;12.492;2024-02-14T06:35:41;2.20;99.90
40374;DHT22;26079;45.958;12.492;2024-02-14T06:38:07;2.20;99.90
40374;DHT22;26079;45.958;12.492;2024-02-14T06:40:33;2.20;99.90
40374;DHT22;26079;45.958;12.492;2024-02-14T06:42:59;2.10;99.90
40374;DHT22;26079;45.958;12.492;2024-02-14T06:45:28;2.00;99.90
40374;DHT22;26079;45.958;12.492;2024-02-14T06:47:53;2.00;99.90
40374;DHT22;26079;45.958;12.492;2024-02-14T06:50:20;2.00;99.90
40374;DHT22;26079;45.958;12.492;2024-02-14T06:52:45;2.00;99.90
40374;DHT22;26079;45.958;12.492;2024-02-14T06:55:11;2.00;99.90
40374;DHT22;26079;45.958;12.492;2024-02-14T06:57:38;2.10;99.90
40374;DHT22;26079;45.958;12.492;2024-02-14T07:00:04;2.20;99.90
40374;DHT22;26079;45.958;12.492;2024-02-14T07:02:32;2.20;99.90
40374;DHT22;26079;45.958;12.492;2024-02-14T07:04:57;2.30;99.90
40374;DHT22;26079;45.958;12.492;2024-02-14T07:07:23;2.40;99.90
40374;DHT22;26079;45.958;12.492;2024-02-14T07:09:49;2.50;99.90
40374;DHT22;26079;45.958;12.492;2024-02-14T07:12:14;2.60;99.90
40374;DHT22;26079;45.958;12.492;2024-02-14T07:14:40;2.70;99.90
40374;DHT22;26079;45.958;12.492;2024-02-14T07:17:06;2.80;99.90
40374;DHT22;26079;45.958;12.492;2024-02-14T07:19:32;2.90;99.90
40374;DHT22;26079;45.958;12.492;2024-02-14T07:21:58;3.10;99.90
40374;DHT22;26079;45.958;12.492;2024-02-14T07:24:23;3.30;99.90
40374;DHT22;26079;45.958;12.492;2024-02-14T07:26:49;3.50;99.90
40374;DHT22;26079;45.958;12.492;2024-02-14T07:29:15;3.60;99.90
40374;DHT22;26079;45.958;12.492;2024-02-14T07:31:40;3.70;99.90
40374;DHT22;26079;45.958;12.492;2024-02-14T07:34:07;3.80;99.90
40374;DHT22;26079;45.958;12.492;2024-02-14T07:36:32;4.00;99.90
40374;DHT22;26079;45.958;12.492;2024-02-14T07:38:58;4.00;99.90
40374;DHT22;26079;45.958;12.492;2024-02-14T07:41:24;4.10;99.90
40374;DHT22;26079;45.958;12.492;2024-02-14T07:43:50;4.20;99.90
40374;DHT22;26079;45.958;12.492;2024-02-14T07:46:19;4.40;99.90
40374;DHT22;26079;45.958;12.492;2024-02-14T07:48:45;4.50;99.90
40374;DHT22;26079;45.958;12.492;2024-02-14T07:51:11;4.60;99.90
40374;DHT22;26079;45.958;12.492;2024-02-14T07:53:37;4.60;99.90
40374;DHT22;26079;45.958;12.492;2024-02-14T07:56:03;4.70;99.90
40374;DHT22;26079;45.958;12.492;2024-02-14T07:58:28;4.70;99.90
40374;DHT22;26079;45.958;12.492;2024-02-14T08:00:54;4.80;99.90
40374;DHT22;26079;45.958;12.492;2024-02-14T08:03:20;4.90;99.90
40374;DHT22;26079;45.958;12.492;2024-02-14T08:05:46;5.00;99.90
40374;DHT22;26079;45.958;12.492;2024-02-14T08:08:11;5.10;99.90
40374;DHT22;26079;45.958;12.492;2024-02-14T08:10:37;5.20;99.90
40374;DHT22;26079;45.958;12.492;2024-02-14T08:13:04;5.20;99.90
40374;DHT22;26079;45.958;12.492;2024-02-14T08:15:30;5.30;99.90
40374;DHT22;26079;45.958;12.492;2024-02-14T08:17:56;5.30;99.90
40374;DHT22;26079;45.958;12.492;2024-02-14T08:20:22;5.40;99.90
40374;DHT22;26079;45.958;12.492;2024-02-14T08:22:49;5.50;99.90
40374;DHT22;26079;45.958;12.492;2024-02-14T08:25:15;5.50;99.90
40374;DHT22;26079;45.958;12.492;2024-02-14T08:27:41;5.60;99.90
40374;DHT22;26079;45.958;12.492;2024-02-14T08:30:07;5.70;99.90
40374;DHT22;26079;45.958;12.492;2024-02-14T08:32:34;5.90;99.90
40374;DHT22;26079;45.958;12.492;2024-02-14T08:35:00;6.10;99.90
40374;DHT22;26079;45.958;12.492;2024-02-14T08:37:26;6.30;99.90
40374;DHT22;26079;45.958;12.492;2024-02-14T08:39:52;6.60;99.90
40374;DHT22;26079;45.958;12.492;2024-02-14T08:42:18;6.70;99.90
40374;DHT22;26079;45.958;12.492;2024-02-14T08:44:44;6.70;99.90
40374;DHT22;26079;45.958;12.492;2024-02-14T08:47:10;6.80;99.90
40374;DHT22;26079;45.958;12.492;2024-02-14T08:49:36;6.80;99.90
40374;DHT22;26079;45.958;12.492;2024-02-14T08:52:02;6.80;99.90
40374;DHT22;26079;45.958;12.492;2024-02-14T08:54:28;6.80;99.90
40374;DHT22;26079;45.958;12.492;2024-02-14T08:56:54;6.80;99.90
40374;DHT22;26079;45.958;12.492;2024-02-14T08:59:21;6.90;99.90
40374;DHT22;26079;45.958;12.492;2024-02-14T09:01:47;6.90;99.90
40374;DHT22;26079;45.958;12.492;2024-02-14T09:04:13;7.00;99.90
40374;DHT22;26079;45.958;12.492;2024-02-14T09:06:39;7.10;99.90
40374;DHT22;26079;45.958;12.492;2024-02-14T09:09:06;7.20;99.90
40374;DHT22;26079;45.958;12.492;2024-02-14T09:11:32;7.30;99.90
40374;DHT22;26079;45.958;12.492;2024-02-14T09:13:58;7.40;99.90
40374;DHT22;26079;45.958;12.492;2024-02-14T09:16:30;7.50;99.90
40374;DHT22;26079;45.958;12.492;2024-02-14T09:18:56;7.70;99.90
40374;DHT22;26079;45.958;12.492;2024-02-14T09:21:23;7.80;99.90
40374;DHT22;26079;45.958;12.492;2024-02-14T09:23:49;7.80;99.90
40374;DHT22;26079;45.958;12.492;2024-02-14T09:26:15;7.90;99.90
40374;DHT22;26079;45.958;12.492;2024-02-14T09:28:42;8.00;98.80
40374;DHT22;26079;45.958;12.492;2024-02-14T09:31:08;8.10;97.40
40374;DHT22;26079;45.958;12.492;2024-02-14T09:33:37;8.20;94.00
40374;DHT22;26079;45.958;12.492;2024-02-14T09:36:03;8.30;94.70
40374;DHT22;26079;45.958;12.492;2024-02-14T09:38:30;8.60;88.40
40374;DHT22;26079;45.958;12.492;2024-02-14T09:41:44;8.90;89.50
40374;DHT22;26079;45.958;12.492;2024-02-14T09:43:51;9.00;90.80
40374;DHT22;26079;45.958;12.492;2024-02-14T09:46:17;9.10;88.70
40374;DHT22;26079;45.958;12.492;2024-02-14T09:48:46;9.10;86.90
40374;DHT22;26079;45.958;12.492;2024-02-14T09:51:12;9.20;85.80
40374;DHT22;26079;45.958;12.492;2024-02-14T09:53:41;9.30;85.10
40374;DHT22;26079;45.958;12.492;2024-02-14T09:56:10;9.30;85.20
40374;DHT22;26079;45.958;12.492;2024-02-14T09:58:36;9.50;86.50
40374;DHT22;26079;45.958;12.492;2024-02-14T10:01:02;9.50;82.60
40374;DHT22;26079;45.958;12.492;2024-02-14T10:03:27;9.80;82.10
40374;DHT22;26079;45.958;12.492;2024-02-14T10:05:53;10.00;80.70
40374;DHT22;26079;45.958;12.492;2024-02-14T10:08:19;10.00;81.20
40374;DHT22;26079;45.958;12.492;2024-02-14T10:10:47;10.10;79.40
40374;DHT22;26079;45.958;12.492;2024-02-14T10:13:15;10.20;80.30
40374;DHT22;26079;45.958;12.492;2024-02-14T10:15:41;10.30;81.50
40374;DHT22;26079;45.958;12.492;2024-02-14T10:18:07;10.40;82.00
40374;DHT22;26079;45.958;12.492;2024-02-14T10:20:35;10.50;80.60
40374;DHT22;26079;45.958;12.492;2024-02-14T10:23:07;10.60;81.60
40374;DHT22;26079;45.958;12.492;2024-02-14T10:25:37;10.70;80.40
40374;DHT22;26079;45.958;12.492;2024-02-14T10:28:05;10.80;79.40
40374;DHT22;26079;45.958;12.492;2024-02-14T10:30:39;10.90;81.10
40374;DHT22;26079;45.958;12.492;2024-02-14T10:33:06;10.90;81.40
40374;DHT22;26079;45.958;12.492;2024-02-14T10:35:35;10.80;81.20
40374;DHT22;26079;45.958;12.492;2024-02-14T10:38:02;10.70;83.00
40374;DHT22;26079;45.958;12.492;2024-02-14T10:40:29;10.60;83.60
40374;DHT22;26079;45.958;12.492;2024-02-14T10:42:57;10.60;82.70
40374;DHT22;26079;45.958;12.492;2024-02-14T10:45:24;10.70;81.30
40374;DHT22;26079;45.958;12.492;2024-02-14T10:47:51;10.90;81.20
40374;DHT22;26079;45.958;12.492;2024-02-14T10:50:21;11.10;78.40
40374;DHT22;26079;45.958;12.492;2024-02-14T10:52:48;11.30;76.40
40374;DHT22;26079;45.958;12.492;2024-02-14T10:55:16;11.30;77.70
40374;DHT22;26079;45.958;12.492;2024-02-14T10:57:43;11.40;78.00
40374;DHT22;26079;45.958;12.492;2024-02-14T11:00:12;11.40;77.80
40374;DHT22;26079;45.958;12.492;2024-02-14T11:02:41;11.50;76.70
40374;DHT22;26079;45.958;12.492;2024-02-14T11:05:12;11.50;77.50
40374;DHT22;26079;45.958;12.492;2024-02-14T11:07:46;11.50;78.80
40374;DHT22;26079;45.958;12.492;2024-02-14T11:10:17;11.60;80.00
40374;DHT22;26079;45.958;12.492;2024-02-14T11:12:43;11.70;79.40
40374;DHT22;26079;45.958;12.492;2024-02-14T11:15:21;11.80;78.60
40374;DHT22;26079;45.958;12.492;2024-02-14T11:17:47;11.90;78.50
40374;DHT22;26079;45.958;12.492;2024-02-14T11:20:32;11.90;78.70
40374;DHT22;26079;45.958;12.492;2024-02-14T11:23:05;12.00;80.30
40374;DHT22;26079;45.958;12.492;2024-02-14T11:25:35;11.90;79.20
40374;DHT22;26079;45.958;12.492;2024-02-14T11:28:24;12.00;74.60
40374;DHT22;26079;45.958;12.492;2024-02-14T11:30:51;12.10;75.70
40374;DHT22;26079;45.958;12.492;2024-02-14T11:35:48;12.00;76.50
40374;DHT22;26079;45.958;12.492;2024-02-14T11:38:15;12.10;75.40
40374;DHT22;26079;45.958;12.492;2024-02-14T11:40:41;12.20;72.00
40374;DHT22;26079;45.958;12.492;2024-02-14T11:43:11;12.40;74.60
40374;DHT22;26079;45.958;12.492;2024-02-14T11:45:38;12.50;71.70
40374;DHT22;26079;45.958;12.492;2024-02-14T11:48:11;12.50;72.80
40374;DHT22;26079;45.958;12.492;2024-02-14T11:50:39;12.40;74.40
40374;DHT22;26079;45.958;12.492;2024-02-14T11:53:05;12.30;75.90
40374;DHT22;26079;45.958;12.492;2024-02-14T11:55:34;12.40;76.60
40374;DHT22;26079;45.958;12.492;2024-02-14T11:58:02;12.30;76.20
40374;DHT22;26079;45.958;12.492;2024-02-14T12:00:28;12.30;77.50
40374;DHT22;26079;45.958;12.492;2024-02-14T12:02:54;12.30;76.30
40374;DHT22;26079;45.958;12.492;2024-02-14T12:05:20;12.40;74.30
40374;DHT22;26079;45.958;12.492;2024-02-14T12:07:46;12.60;72.80
40374;DHT22;26079;45.958;12.492;2024-02-14T12:10:12;12.70;74.40
40374;DHT22;26079;45.958;12.492;2024-02-14T12:12:38;12.80;74.70
40374;DHT22;26079;45.958;12.492;2024-02-14T12:15:04;12.70;75.20
40374;DHT22;26079;45.958;12.492;2024-02-14T12:17:31;12.70;76.00
40374;DHT22;26079;45.958;12.492;2024-02-14T12:20:10;12.70;75.20
40374;DHT22;26079;45.958;12.492;2024-02-14T12:22:38;12.80;73.40
40374;DHT22;26079;45.958;12.492;2024-02-14T12:25:06;13.00;74.20
40374;DHT22;26079;45.958;12.492;2024-02-14T12:27:33;13.10;75.00
40374;DHT22;26079;45.958;12.492;2024-02-14T12:30:02;13.00;75.40
40374;DHT22;26079;45.958;12.492;2024-02-14T12:32:28;13.00;75.10
40374;DHT22;26079;45.958;12.492;2024-02-14T12:34:56;13.10;74.00
40374;DHT22;26079;45.958;12.492;2024-02-14T12:37:23;13.00;74.30
40374;DHT22;26079;45.958;12.492;2024-02-14T12:39:48;13.10;73.40
40374;DHT22;26079;45.958;12.492;2024-02-14T12:42:14;13.30;71.70
40374;DHT22;26079;45.958;12.492;2024-02-14T12:44:40;13.30;71.30
40374;DHT22;26079;45.958;12.492;2024-02-14T12:47:06;13.30;71.10
40374;DHT22;26079;45.958;12.492;2024-02-14T12:49:34;13.30;73.00
40374;DHT22;26079;45.958;12.492;2024-02-14T12:51:59;13.20;73.80
40374;DHT22;26079;45.958;12.492;2024-02-14T12:54:25;13.20;74.00
40374;DHT22;26079;45.958;12.492;2024-02-14T12:56:52;13.20;71.90
40374;DHT22;26079;45.958;12.492;2024-02-14T12:59:18;13.20;73.70
40374;DHT22;26079;45.958;12.492;2024-02-14T13:01:44;13.30;72.50
40374;DHT22;26079;45.958;12.492;2024-02-14T13:04:10;13.30;73.10
40374;DHT22;26079;45.958;12.492;2024-02-14T13:06:36;13.20;72.60
40374;DHT22;26079;45.958;12.492;2024-02-14T13:09:03;13.30;74.30
40374;DHT22;26079;45.958;12.492;2024-02-14T13:11:31;13.30;74.30
40374;DHT22;26079;45.958;12.492;2024-02-14T13:13:58;13.30;73.70
40374;DHT22;26079;45.958;12.492;2024-02-14T13:16:23;13.30;72.80
40374;DHT22;26079;45.958;12.492;2024-02-14T13:18:49;13.20;73.50
40374;DHT22;26079;45.958;12.492;2024-02-14T13:21:15;13.10;74.60
40374;DHT22;26079;45.958;12.492;2024-02-14T13:23:42;12.90;75.10
40374;DHT22;26079;45.958;12.492;2024-02-14T13:26:08;12.90;74.60
40374;DHT22;26079;45.958;12.492;2024-02-14T13:28:34;12.80;73.50
40374;DHT22;26079;45.958;12.492;2024-02-14T13:31:00;12.80;74.80
40374;DHT22;26079;45.958;12.492;2024-02-14T13:33:26;12.90;75.10
40374;DHT22;26079;45.958;12.492;2024-02-14T13:35:51;13.00;75.00
40374;DHT22;26079;45.958;12.492;2024-02-14T13:38:17;13.10;73.50
40374;DHT22;26079;45.958;12.492;2024-02-14T13:40:43;13.00;74.70
40374;DHT22;26079;45.958;12.492;2024-02-14T13:43:09;12.90;75.00
40374;DHT22;26079;45.958;12.492;2024-02-14T13:45:45;12.90;76.70
40374;DHT22;26079;45.958;12.492;2024-02-14T13:48:13;13.10;76.80
40374;DHT22;26079;45.958;12.492;2024-02-14T13:50:39;13.10;76.70
40374;DHT22;26079;45.958;12.492;2024-02-14T13:53:07;13.10;76.90
40374;DHT22;26079;45.958;12.492;2024-02-14T13:55:33;13.10;76.20
40374;DHT22;26079;45.958;12.492;2024-02-14T13:57:59;13.10;77.30
40374;DHT22;26079;45.958;12.492;2024-02-14T14:00:24;13.10;78.40
40374;DHT22;26079;45.958;12.492;2024-02-14T14:02:50;13.00;78.30
40374;DHT22;26079;45.958;12.492;2024-02-14T14:05:16;13.10;77.80
40374;DHT22;26079;45.958;12.492;2024-02-14T14:07:41;13.10;78.30
40374;DHT22;26079;45.958;12.492;2024-02-14T14:10:10;13.10;78.00
40374;DHT22;26079;45.958;12.492;2024-02-14T14:12:36;13.20;77.90
40374;DHT22;26079;45.958;12.492;2024-02-14T14:15:03;13.30;78.40
40374;DHT22;26079;45.958;12.492;2024-02-14T14:17:29;13.40;77.30
40374;DHT22;26079;45.958;12.492;2024-02-14T14:19:55;13.40;76.80
40374;DHT22;26079;45.958;12.492;2024-02-14T14:22:21;13.50;75.60
40374;DHT22;26079;45.958;12.492;2024-02-14T14:24:47;13.60;77.50
40374;DHT22;26079;45.958;12.492;2024-02-14T14:27:12;13.60;76.90
40374;DHT22;26079;45.958;12.492;2024-02-14T14:29:42;13.60;75.10
40374;DHT22;26079;45.958;12.492;2024-02-14T14:32:08;13.60;77.30
40374;DHT22;26079;45.958;12.492;2024-02-14T14:34:33;13.70;77.10
40374;DHT22;26079;45.958;12.492;2024-02-14T14:36:59;13.70;77.20
40374;DHT22;26079;45.958;12.492;2024-02-14T14:39:26;13.60;77.10
40374;DHT22;26079;45.958;12.492;2024-02-14T14:41:52;13.40;76.10
40374;DHT22;26079;45.958;12.492;2024-02-14T14:44:19;13.30;77.30
40374;DHT22;26079;45.958;12.492;2024-02-14T14:46:45;13.20;78.90
40374;DHT22;26079;45.958;12.492;2024-02-14T14:49:11;13.10;78.40
40374;DHT22;26079;45.958;12.492;2024-02-14T14:51:37;12.90;79.20
40374;DHT22;26079;45.958;12.492;2024-02-14T14:54:04;12.80;79.00
40374;DHT22;26079;45.958;12.492;2024-02-14T14:56:30;12.70;79.80
40374;DHT22;26079;45.958;12.492;2024-02-14T14:58:56;12.60;79.70
40374;DHT22;26079;45.958;12.492;2024-02-14T15:01:24;12.60;79.30
40374;DHT22;26079;45.958;12.492;2024-02-14T15:03:50;12.60;79.30
40374;DHT22;26079;45.958;12.492;2024-02-14T15:06:18;12.50;80.50
40374;DHT22;26079;45.958;12.492;2024-02-14T15:08:44;12.50;80.40
40374;DHT22;26079;45.958;12.492;2024-02-14T15:11:11;12.50;81.00
40374;DHT22;26079;45.958;12.492;2024-02-14T15:13:40;12.40;80.70
40374;DHT22;26079;45.958;12.492;2024-02-14T15:16:06;12.40;80.30
40374;DHT22;26079;45.958;12.492;2024-02-14T15:18:33;12.50;80.90
40374;DHT22;26079;45.958;12.492;2024-02-14T15:20:59;12.40;81.50
40374;DHT22;26079;45.958;12.492;2024-02-14T15:23:25;12.30;80.40